Time,TemperatureF,DewpointF,PressureIn,WindDirection,WindDirectionDegrees,WindSpeedMPH,WindSpeedGustMPH,Humidity,HourlyPrecipIn,Conditions,Clouds,dailyrainin,SoftwareType,DateUTC
2013-07-08 00:00:00,68.1,64.1,30.00,SW,216,0.0,9.8,87,0.00,,,0.00,VWS V14.01,2013-07-08 04:00:00,
2013-07-08 00:01:00,68.2,64.2,30.00,WSW,248,1.4,1.4,87,0.00,,,0.00,VWS V14.01,2013-07-08 04:01:00,
2013-07-08 00:06:00,68.1,64.1,30.00,WSW,248,0.0,1.4,87,0.00,,,0.00,VWS V14.01,2013-07-08 04:06:00,
2013-07-08 00:11:00,68.1,64.4,30.00,WSW,247,0.0,1.4,88,0.00,,,0.00,VWS V14.01,2013-07-08 04:11:00,
2013-07-08 00:16:00,68.1,64.4,30.00,WSW,247,0.0,1.4,88,0.00,,,0.00,VWS V14.01,2013-07-08 04:16:00,
2013-07-08 00:21:00,68.1,64.1,30.00,WSW,248,0.0,1.4,87,0.00,,,0.00,VWS V14.01,2013-07-08 04:21:00,
2013-07-08 00:26:00,68.0,64.3,30.00,WSW,247,0.0,1.4,88,0.00,,,0.00,VWS V14.01,2013-07-08 04:26:00,
2013-07-08 00:31:00,67.7,64.3,30.00,WSW,248,0.0,1.4,89,0.00,,,0.00,VWS V14.01,2013-07-08 04:31:00,
2013-07-08 00:36:00,67.5,64.2,30.01,West,260,0.0,1.4,89,0.00,,,0.00,VWS V14.01,2013-07-08 04:36:00,
2013-07-08 00:41:00,67.6,64.6,30.00,North,360,1.4,4.2,90,0.00,,,0.00,VWS V14.01,2013-07-08 04:41:00,
2013-07-08 00:46:00,67.6,64.6,30.00,NNE,30,0.0,4.2,90,0.00,,,0.00,VWS V14.01,2013-07-08 04:46:00,
2013-07-08 00:51:00,67.6,64.9,30.00,NNE,30,0.0,4.2,91,0.00,,,0.00,VWS V14.01,2013-07-08 04:51:00,
2013-07-08 00:56:00,67.6,64.6,30.00,North,8,0.0,4.2,90,0.00,,,0.00,VWS V14.01,2013-07-08 04:56:00,
2013-07-08 01:00:00,68.1,64.1,30.00,SW,216,0.0,9.8,87,0.00,,,0.00,VWS V14.01,2013-07-08 05:00:00,
2013-07-08 01:01:00,67.5,64.5,30.00,North,8,0.0,4.2,90,0.00,,,0.00,VWS V14.01,2013-07-08 05:01:00,
2013-07-08 01:06:00,67.3,64.3,30.00,NW,312,0.0,4.2,90,0.00,,,0.00,VWS V14.01,2013-07-08 05:06:00,
2013-07-08 01:11:00,67.3,64.3,30.00,NW,315,0.0,4.2,90,0.00,,,0.00,VWS V14.01,2013-07-08 05:11:00,
2013-07-08 01:16:00,67.4,64.4,30.00,NW,314,0.0,4.2,90,0.00,,,0.00,VWS V14.01,2013-07-08 05:16:00,
2013-07-08 01:21:00,67.5,64.5,30.00,NW,316,0.0,4.2,90,0.00,,,0.00,VWS V14.01,2013-07-08 05:21:00,
2013-07-08 01:26:00,67.7,64.7,30.00,North,9,1.4,4.2,90,0.00,,,0.00,VWS V14.01,2013-07-08 05:26:00,
2013-07-08 01:31:00,67.8,64.8,30.00,North,6,1.4,4.2,90,0.00,,,0.00,VWS V14.01,2013-07-08 05:31:00,
2013-07-08 01:36:00,67.8,64.8,30.00,NE,46,2.8,4.2,90,0.00,,,0.00,VWS V14.01,2013-07-08 05:36:00,
2013-07-08 01:41:00,67.8,65.1,30.00,NNE,27,1.4,5.6,91,0.00,,,0.00,VWS V14.01,2013-07-08 05:41:00,
2013-07-08 01:46:00,67.8,65.4,30.00,ENE,64,2.8,7.0,92,0.00,,,0.00,VWS V14.01,2013-07-08 05:46:00,
2013-07-08 01:51:00,67.8,65.7,30.00,ESE,113,4.2,7.0,93,0.00,,,0.00,VWS V14.01,2013-07-08 05:51:00,
2013-07-08 01:56:00,67.7,65.3,29.99,East,101,4.2,9.8,92,0.00,,,0.00,VWS V14.01,2013-07-08 05:56:00,
2013-07-08 02:00:00,67.6,65.2,29.99,SE,136,5.6,9.8,92,0.00,,,0.00,VWS V14.01,2013-07-08 06:00:00,
2013-07-08 02:01:00,67.5,65.1,29.99,ESE,112,9.8,9.8,92,0.00,,,0.00,VWS V14.01,2013-07-08 06:01:00,
2013-07-08 02:06:00,67.5,64.8,29.99,SSE,153,7.0,12.6,91,0.00,,,0.00,VWS V14.01,2013-07-08 06:06:00,
2013-07-08 02:11:00,67.3,64.0,30.00,SE,136,8.4,12.6,89,0.00,,,0.00,VWS V14.01,2013-07-08 06:11:00,
2013-07-08 02:16:00,67.1,63.4,30.00,ESE,114,7.0,18.2,88,0.00,,,0.00,VWS V14.01,2013-07-08 06:16:00,
2013-07-08 02:21:00,66.9,62.9,30.00,East,101,7.0,18.2,87,0.00,,,0.00,VWS V14.01,2013-07-08 06:21:00,
2013-07-08 02:26:00,66.8,62.8,30.00,SSE,148,7.0,18.2,87,0.00,,,0.00,VWS V14.01,2013-07-08 06:26:00,
2013-07-08 02:31:00,66.7,62.7,30.00,ENE,78,5.6,18.2,87,0.00,,,0.00,VWS V14.01,2013-07-08 06:31:00,
2013-07-08 02:36:00,66.6,62.9,30.00,East,101,9.8,18.2,88,0.00,,,0.00,VWS V14.01,2013-07-08 06:36:00,
2013-07-08 02:41:00,66.5,62.5,30.00,SE,143,2.8,18.2,87,0.00,,,0.00,VWS V14.01,2013-07-08 06:41:00,
2013-07-08 02:46:00,66.5,62.8,30.00,SSE,148,1.4,18.2,88,0.00,,,0.00,VWS V14.01,2013-07-08 06:46:00,
2013-07-08 02:51:00,66.5,62.8,30.00,ESE,112,5.6,18.2,88,0.00,,,0.00,VWS V14.01,2013-07-08 06:51:00,
2013-07-08 02:55:00,66.4,62.4,30.00,East,92,5.6,18.2,87,0.00,,,0.00,VWS V14.01,2013-07-08 06:55:00,
2013-07-08 03:00:00,66.3,62.3,30.01,SE,146,4.2,18.2,87,0.00,,,0.00,VWS V14.01,2013-07-08 07:00:00,
2013-07-08 03:05:00,66.2,62.2,30.00,SSE,150,4.2,18.2,87,0.00,,,0.00,VWS V14.01,2013-07-08 07:05:00,
2013-07-08 03:10:00,66.2,62.5,30.01,SE,132,4.2,18.2,88,0.00,,,0.00,VWS V14.01,2013-07-08 07:10:00,
2013-07-08 03:15:00,66.2,62.5,30.01,ESE,119,4.2,18.2,88,0.00,,,0.00,VWS V14.01,2013-07-08 07:15:00,
2013-07-08 03:20:00,66.2,62.5,30.01,ESE,120,4.2,18.2,88,0.00,,,0.00,VWS V14.01,2013-07-08 07:20:00,
2013-07-08 03:25:00,66.1,62.5,30.01,ESE,111,5.6,18.2,88,0.00,,,0.00,VWS V14.01,2013-07-08 07:25:00,
2013-07-08 03:30:00,66.1,62.5,30.01,SE,135,1.4,18.2,88,0.00,,,0.00,VWS V14.01,2013-07-08 07:30:00,
2013-07-08 03:35:00,66.1,62.1,30.01,SSE,165,7.0,18.2,87,0.00,,,0.00,VWS V14.01,2013-07-08 07:35:00,
2013-07-08 03:40:00,66.0,62.0,30.01,SE,133,1.4,18.2,87,0.00,,,0.00,VWS V14.01,2013-07-08 07:40:00,
2013-07-08 03:45:00,66.0,62.3,30.01,SSE,166,5.6,18.2,88,0.00,,,0.00,VWS V14.01,2013-07-08 07:45:00,
2013-07-08 03:50:00,66.0,62.3,30.01,East,101,2.8,18.2,88,0.00,,,0.00,VWS V14.01,2013-07-08 07:50:00,
2013-07-08 03:55:00,65.9,61.9,30.01,SE,128,4.2,18.2,87,0.00,,,0.00,VWS V14.01,2013-07-08 07:55:00,
2013-07-08 04:00:00,65.8,62.2,30.01,ESE,113,5.6,9.8,88,0.00,,,0.00,VWS V14.01,2013-07-08 08:00:00,
2013-07-08 04:05:00,65.7,62.0,30.00,SE,129,5.6,11.2,88,0.00,,,0.00,VWS V14.01,2013-07-08 08:05:00,
2013-07-08 04:10:00,65.6,61.6,30.00,SE,134,7.0,12.6,87,0.00,,,0.00,VWS V14.01,2013-07-08 08:10:00,
2013-07-08 04:15:00,65.5,61.5,30.00,South,181,9.8,15.4,87,0.00,,,0.00,VWS V14.01,2013-07-08 08:15:00,
2013-07-08 04:20:00,65.5,61.5,30.00,East,85,8.4,15.4,87,0.00,,,0.00,VWS V14.01,2013-07-08 08:20:00,
2013-07-08 04:25:00,65.4,61.4,30.00,SE,133,9.8,15.4,87,0.00,,,0.00,VWS V14.01,2013-07-08 08:25:00,
2013-07-08 04:30:00,65.3,61.3,30.00,East,101,7.0,15.4,87,0.00,,,0.00,VWS V14.01,2013-07-08 08:30:00,
2013-07-08 04:35:00,65.3,61.7,29.99,ESE,121,9.8,15.4,88,0.00,,,0.00,VWS V14.01,2013-07-08 08:35:00,
2013-07-08 04:40:00,65.3,61.7,29.99,SSE,165,7.0,15.4,88,0.00,,,0.00,VWS V14.01,2013-07-08 08:40:00,
2013-07-08 04:45:00,65.3,61.7,29.99,East,89,9.8,15.4,88,0.00,,,0.00,VWS V14.01,2013-07-08 08:45:00,
2013-07-08 04:50:00,65.2,61.6,29.99,SE,133,5.6,16.8,88,0.00,,,0.00,VWS V14.01,2013-07-08 08:50:00,
2013-07-08 04:55:00,65.2,61.6,29.99,SE,132,8.4,16.8,88,0.00,,,0.00,VWS V14.01,2013-07-08 08:55:00,
2013-07-08 05:00:00,65.2,61.6,30.00,East,91,9.8,16.8,88,0.00,,,0.00,VWS V14.01,2013-07-08 09:00:00,
2013-07-08 05:05:00,65.1,61.5,30.00,SE,141,4.2,16.8,88,0.00,,,0.00,VWS V14.01,2013-07-08 09:05:00,
2013-07-08 05:10:00,65.0,61.4,29.99,SE,129,8.4,16.8,88,0.00,,,0.00,VWS V14.01,2013-07-08 09:10:00,
2013-07-08 05:15:00,65.0,61.4,30.00,ESE,123,7.0,16.8,88,0.00,,,0.00,VWS V14.01,2013-07-08 09:15:00,
2013-07-08 05:20:00,65.0,61.4,30.00,SE,143,5.6,16.8,88,0.00,,,0.00,VWS V14.01,2013-07-08 09:20:00,
2013-07-08 05:25:00,65.0,61.4,30.00,SSE,153,4.2,16.8,88,0.00,,,0.00,VWS V14.01,2013-07-08 09:25:00,
2013-07-08 05:30:00,64.9,60.9,30.00,SE,137,2.8,16.8,87,0.00,,,0.00,VWS V14.01,2013-07-08 09:30:00,
2013-07-08 05:35:00,64.9,60.9,30.00,SE,143,5.6,16.8,87,0.00,,,0.00,VWS V14.01,2013-07-08 09:35:00,
2013-07-08 05:40:00,64.9,60.9,30.00,ESE,112,4.2,16.8,87,0.00,,,0.00,VWS V14.01,2013-07-08 09:40:00,
2013-07-08 05:45:00,64.8,60.8,30.00,SSE,155,4.2,16.8,87,0.00,,,0.00,VWS V14.01,2013-07-08 09:45:00,
2013-07-08 05:50:00,64.7,60.8,30.00,East,96,8.4,16.8,87,0.00,,,0.00,VWS V14.01,2013-07-08 09:50:00,
2013-07-08 05:55:00,64.7,60.8,30.00,ESE,119,8.4,16.8,87,0.00,,,0.00,VWS V14.01,2013-07-08 09:55:00,
2013-07-08 06:00:00,64.6,60.7,30.00,SE,130,5.6,8.4,87,0.00,,,0.00,VWS V14.01,2013-07-08 10:00:00,
2013-07-08 06:05:00,64.6,60.7,30.00,East,84,5.6,9.8,87,0.00,,,0.00,VWS V14.01,2013-07-08 10:05:00,
2013-07-08 06:10:00,64.5,60.5,30.00,ESE,123,5.6,11.2,87,0.00,,,0.00,VWS V14.01,2013-07-08 10:10:00,
2013-07-08 06:15:00,64.5,60.2,30.01,SSE,155,7.0,11.2,86,0.00,,,0.00,VWS V14.01,2013-07-08 10:15:00,
2013-07-08 06:20:00,64.5,60.5,30.01,SE,129,7.0,11.2,87,0.00,,,0.00,VWS V14.01,2013-07-08 10:20:00,
2013-07-08 06:25:00,64.5,60.5,30.02,SE,142,8.4,11.2,87,0.00,,,0.00,VWS V14.01,2013-07-08 10:25:00,
2013-07-08 06:28:00,64.5,60.5,30.02,SSE,153,4.2,11.2,87,0.00,,,0.00,VWS V14.01,2013-07-08 10:28:00,
2013-07-08 06:29:00,64.5,60.5,30.02,South,169,4.2,11.2,87,0.00,,,0.00,VWS V14.01,2013-07-08 10:29:00,
2013-07-08 06:33:00,64.6,60.7,30.02,SE,142,2.8,11.2,87,0.00,,,0.00,VWS V14.01,2013-07-08 10:33:00,
2013-07-08 06:38:00,64.6,60.7,30.02,ESE,115,8.4,11.2,87,0.00,,,0.00,VWS V14.01,2013-07-08 10:38:00,
2013-07-08 06:43:00,64.6,60.7,30.02,ESE,110,2.8,11.2,87,0.00,,,0.00,VWS V14.01,2013-07-08 10:43:00,
2013-07-08 06:48:00,64.7,60.8,30.02,ESE,103,8.4,11.2,87,0.00,,,0.00,VWS V14.01,2013-07-08 10:48:00,
2013-07-08 06:53:00,64.6,61.0,30.01,SE,126,5.6,11.2,88,0.00,,,0.00,VWS V14.01,2013-07-08 10:53:00,
2013-07-08 06:58:00,64.6,61.0,30.01,ESE,119,4.2,11.2,88,0.00,,,0.00,VWS V14.01,2013-07-08 10:58:00,
2013-07-08 07:00:00,64.7,60.8,30.00,SE,142,2.8,16.8,87,0.00,,,0.00,VWS V14.01,2013-07-08 11:00:00,
2013-07-08 07:03:00,64.6,61.0,30.02,SE,142,8.4,11.2,88,0.00,,,0.00,VWS V14.01,2013-07-08 11:03:00,
2013-07-08 07:08:00,64.6,60.7,30.02,ESE,113,8.4,11.2,87,0.00,,,0.00,VWS V14.01,2013-07-08 11:08:00,
2013-07-08 07:13:00,64.6,61.0,30.02,SE,142,7.0,11.2,88,0.00,,,0.00,VWS V14.01,2013-07-08 11:13:00,
2013-07-08 07:18:00,64.7,61.1,30.02,SE,129,4.2,11.2,88,0.00,,,0.00,VWS V14.01,2013-07-08 11:18:00,
2013-07-08 07:23:00,64.7,61.1,30.02,SE,134,4.2,11.2,88,0.00,,,0.00,VWS V14.01,2013-07-08 11:23:00,
2013-07-08 07:28:00,64.7,61.1,30.02,ESE,110,9.8,12.6,88,0.00,,,0.00,VWS V14.01,2013-07-08 11:28:00,
2013-07-08 07:33:00,64.7,61.1,30.02,SSE,157,9.8,12.6,88,0.00,,,0.00,VWS V14.01,2013-07-08 11:33:00,
2013-07-08 07:38:00,64.8,61.2,30.02,SE,126,4.2,12.6,88,0.00,,,0.00,VWS V14.01,2013-07-08 11:38:00,
2013-07-08 07:43:00,64.8,61.5,30.02,ESE,109,4.2,12.6,89,0.00,,,0.00,VWS V14.01,2013-07-08 11:43:00,
2013-07-08 07:48:00,64.8,61.2,30.02,ESE,122,7.0,12.6,88,0.00,,,0.00,VWS V14.01,2013-07-08 11:48:00,
2013-07-08 07:53:00,64.8,61.2,30.02,ESE,109,4.2,12.6,88,0.00,,,0.00,VWS V14.01,2013-07-08 11:53:00,
2013-07-08 07:58:00,64.8,61.5,30.02,ESE,113,4.2,12.6,89,0.00,,,0.00,VWS V14.01,2013-07-08 11:58:00,
2013-07-08 08:00:00,64.9,61.6,30.02,SSE,162,2.8,12.6,89,0.00,,,0.00,VWS V14.01,2013-07-08 12:00:00,
2013-07-08 08:03:00,65.0,61.7,30.02,ESE,120,4.2,7.0,89,0.00,,,0.00,VWS V14.01,2013-07-08 12:03:00,
2013-07-08 08:08:00,64.9,61.6,30.02,ESE,115,5.6,9.8,89,0.00,,,0.00,VWS V14.01,2013-07-08 12:08:00,
2013-07-08 08:13:00,64.9,61.6,30.02,SSE,155,1.4,11.2,89,0.00,,,0.00,VWS V14.01,2013-07-08 12:13:00,
2013-07-08 08:18:00,64.9,61.6,30.02,SSE,156,2.8,11.2,89,0.00,,,0.00,VWS V14.01,2013-07-08 12:18:00,
2013-07-08 08:23:00,64.8,61.5,30.02,SE,126,7.0,14.0,89,0.00,,,0.00,VWS V14.01,2013-07-08 12:23:00,
2013-07-08 08:28:00,64.8,61.5,30.02,SSE,148,5.6,14.0,89,0.00,,,0.00,VWS V14.01,2013-07-08 12:28:00,
2013-07-08 08:33:00,64.8,61.5,30.02,SSE,159,4.2,14.0,89,0.00,,,0.00,VWS V14.01,2013-07-08 12:33:00,
2013-07-08 08:38:00,65.0,61.7,30.03,ESE,103,5.6,14.0,89,0.00,,,0.00,VWS V14.01,2013-07-08 12:38:00,
2013-07-08 08:43:00,64.9,61.6,30.03,SSE,167,5.6,14.0,89,0.00,,,0.00,VWS V14.01,2013-07-08 12:43:00,
2013-07-08 08:48:00,65.0,61.7,30.03,SSE,156,4.2,14.0,89,0.00,,,0.00,VWS V14.01,2013-07-08 12:48:00,
2013-07-08 08:53:00,65.1,61.8,30.03,East,99,5.6,14.0,89,0.00,,,0.00,VWS V14.01,2013-07-08 12:53:00,
2013-07-08 08:58:00,65.1,61.5,30.03,ESE,119,9.8,14.0,88,0.00,,,0.00,VWS V14.01,2013-07-08 12:58:00,
2013-07-08 09:00:00,64.9,61.6,30.02,SSE,162,2.8,12.6,89,0.00,,,0.00,VWS V14.01,2013-07-08 13:00:00,
2013-07-08 09:03:00,65.0,61.7,30.03,ESE,123,4.2,14.0,89,0.00,,,0.00,VWS V14.01,2013-07-08 13:03:00,
2013-07-08 09:08:00,65.1,61.8,30.03,ESE,110,8.4,14.0,89,0.00,,,0.00,VWS V14.01,2013-07-08 13:08:00,
2013-07-08 09:13:00,65.2,61.9,30.03,East,101,2.8,14.0,89,0.00,,,0.00,VWS V14.01,2013-07-08 13:13:00,
2013-07-08 09:18:00,65.2,61.6,30.04,SE,127,4.2,14.0,88,0.00,,,0.00,VWS V14.01,2013-07-08 13:18:00,
2013-07-08 09:23:00,65.3,62.0,30.03,SSE,162,4.2,14.0,89,0.00,,,0.00,VWS V14.01,2013-07-08 13:23:00,
2013-07-08 09:28:00,65.4,62.1,30.03,SSE,148,2.8,14.0,89,0.00,,,0.00,VWS V14.01,2013-07-08 13:28:00,
2013-07-08 09:33:00,65.5,61.9,30.03,SSE,154,5.6,14.0,88,0.00,,,0.00,VWS V14.01,2013-07-08 13:33:00,
2013-07-08 09:38:00,65.7,62.0,30.03,East,101,4.2,14.0,88,0.00,,,0.00,VWS V14.01,2013-07-08 13:38:00,
2013-07-08 09:43:00,65.8,62.2,30.02,SE,141,5.6,14.0,88,0.00,,,0.00,VWS V14.01,2013-07-08 13:43:00,
2013-07-08 09:48:00,65.9,62.2,30.02,SSE,162,4.2,14.0,88,0.00,,,0.00,VWS V14.01,2013-07-08 13:48:00,
2013-07-08 09:53:00,66.1,62.5,30.03,ESE,122,8.4,14.0,88,0.00,,,0.00,VWS V14.01,2013-07-08 13:53:00,
2013-07-08 09:58:00,66.0,62.3,30.03,SSE,150,4.2,14.0,88,0.00,,,0.00,VWS V14.01,2013-07-08 13:58:00,
2013-07-08 10:00:00,66.0,62.3,30.03,SE,145,4.2,14.0,88,0.00,,,0.00,VWS V14.01,2013-07-08 14:00:00,
2013-07-08 10:03:00,66.1,62.1,30.02,SE,133,8.4,11.2,87,0.00,,,0.00,VWS V14.01,2013-07-08 14:03:00,
2013-07-08 10:08:00,66.2,62.2,30.02,SSE,155,5.6,11.2,87,0.00,,,0.00,VWS V14.01,2013-07-08 14:08:00,
2013-07-08 10:13:00,66.2,62.2,30.02,SSE,158,9.8,11.2,87,0.00,,,0.00,VWS V14.01,2013-07-08 14:13:00,
2013-07-08 10:18:00,66.2,62.2,30.02,East,88,7.0,11.2,87,0.00,,,0.00,VWS V14.01,2013-07-08 14:18:00,
2013-07-08 10:23:00,66.2,62.5,30.02,ENE,68,5.6,14.0,88,0.00,,,0.00,VWS V14.01,2013-07-08 14:23:00,
2013-07-08 10:28:00,66.3,62.6,30.03,SE,133,8.4,14.0,88,0.00,,,0.00,VWS V14.01,2013-07-08 14:28:00,
2013-07-08 10:33:00,66.2,62.5,30.02,SSE,153,5.6,14.0,88,0.00,,,0.00,VWS V14.01,2013-07-08 14:33:00,
2013-07-08 10:38:00,66.3,62.6,30.03,SE,139,5.6,14.0,88,0.00,,,0.00,VWS V14.01,2013-07-08 14:38:00,
2013-07-08 10:43:00,66.4,62.7,30.03,ESE,108,5.6,14.0,88,0.00,,,0.00,VWS V14.01,2013-07-08 14:43:00,
2013-07-08 10:48:00,66.7,63.0,30.02,ESE,115,7.0,14.0,88,0.00,,,0.00,VWS V14.01,2013-07-08 14:48:00,
2013-07-08 10:53:00,66.7,63.0,30.02,East,82,9.8,14.0,88,0.00,,,0.00,VWS V14.01,2013-07-08 14:53:00,
2013-07-08 10:58:00,66.7,63.0,30.03,SSE,166,8.4,14.0,88,0.00,,,0.00,VWS V14.01,2013-07-08 14:58:00,
2013-07-08 11:00:00,66.0,62.3,30.03,SE,145,4.2,14.0,88,0.00,,,0.00,VWS V14.01,2013-07-08 15:00:00,
2013-07-08 11:03:00,66.6,62.9,30.03,ESE,123,7.0,14.0,88,0.00,,,0.00,VWS V14.01,2013-07-08 15:03:00,
2013-07-08 11:08:00,66.7,63.4,30.03,SSE,162,4.2,14.0,89,0.00,,,0.00,VWS V14.01,2013-07-08 15:08:00,
2013-07-08 11:13:00,66.8,63.5,30.03,SE,139,4.2,14.0,89,0.00,,,0.00,VWS V14.01,2013-07-08 15:13:00,
2013-07-08 11:18:00,66.8,63.5,30.03,SE,131,5.6,14.0,89,0.00,,,0.00,VWS V14.01,2013-07-08 15:18:00,
2013-07-08 11:23:00,66.8,63.5,30.03,East,96,7.0,15.4,89,0.00,,,0.00,VWS V14.01,2013-07-08 15:23:00,
2013-07-08 11:28:00,67.0,63.7,30.03,SE,131,5.6,15.4,89,0.00,,,0.00,VWS V14.01,2013-07-08 15:28:00,
2013-07-08 11:33:00,67.2,63.5,30.03,SE,131,7.0,15.4,88,0.00,,,0.00,VWS V14.01,2013-07-08 15:33:00,
2013-07-08 11:38:00,67.3,63.6,30.04,SE,131,7.0,15.4,88,0.00,,,0.00,VWS V14.01,2013-07-08 15:38:00,
2013-07-08 11:43:00,67.3,63.6,30.04,East,94,5.6,15.4,88,0.00,,,0.00,VWS V14.01,2013-07-08 15:43:00,
2013-07-08 11:48:00,67.3,63.6,30.04,SSE,155,8.4,15.4,88,0.00,,,0.00,VWS V14.01,2013-07-08 15:48:00,
2013-07-08 11:53:00,67.5,63.8,30.04,ESE,115,7.0,15.4,88,0.00,,,0.00,VWS V14.01,2013-07-08 15:53:00,
2013-07-08 11:58:00,67.6,63.9,30.04,ESE,112,4.2,15.4,88,0.00,,,0.00,VWS V14.01,2013-07-08 15:58:00,
2013-07-08 12:00:00,67.6,63.9,30.04,ESE,122,9.8,15.4,88,0.00,,,0.00,VWS V14.01,2013-07-08 16:00:00,
2013-07-08 12:03:00,67.7,64.0,30.03,SE,145,5.6,11.2,88,0.00,,,0.00,VWS V14.01,2013-07-08 16:03:00,
2013-07-08 12:08:00,67.7,64.0,30.03,ESE,122,7.0,11.2,88,0.00,,,0.00,VWS V14.01,2013-07-08 16:08:00,
2013-07-08 12:13:00,67.7,64.0,30.03,ESE,113,5.6,12.6,88,0.00,,,0.00,VWS V14.01,2013-07-08 16:13:00,
2013-07-08 12:18:00,67.8,64.4,30.03,South,172,7.0,12.6,89,0.00,,,0.00,VWS V14.01,2013-07-08 16:18:00,
2013-07-08 12:23:00,67.8,64.4,30.03,SE,131,4.2,12.6,89,0.00,,,0.00,VWS V14.01,2013-07-08 16:23:00,
2013-07-08 12:28:00,67.7,64.3,30.02,SE,144,7.0,12.6,89,0.00,,,0.00,VWS V14.01,2013-07-08 16:28:00,
2013-07-08 12:33:00,67.6,64.2,30.03,SE,131,4.2,12.6,89,0.00,,,0.00,VWS V14.01,2013-07-08 16:33:00,
2013-07-08 12:38:00,67.6,64.2,30.03,ESE,122,4.2,12.6,89,0.00,,,0.00,VWS V14.01,2013-07-08 16:38:00,
2013-07-08 12:43:00,67.7,64.3,30.02,ESE,103,5.6,14.0,89,0.00,,,0.00,VWS V14.01,2013-07-08 16:43:00,
2013-07-08 12:48:00,67.7,64.3,30.02,East,101,9.8,15.4,89,0.00,,,0.00,VWS V14.01,2013-07-08 16:48:00,
2013-07-08 12:53:00,67.7,64.3,30.02,ESE,121,7.0,15.4,89,0.00,,,0.00,VWS V14.01,2013-07-08 16:53:00,
2013-07-08 12:58:00,67.8,64.8,30.02,SSE,163,8.4,15.4,90,0.00,,,0.00,VWS V14.01,2013-07-08 16:58:00,
2013-07-08 13:00:00,67.6,63.9,30.04,ESE,122,9.8,15.4,88,0.00,,,0.00,VWS V14.01,2013-07-08 17:00:00,
2013-07-08 13:03:00,68.1,65.1,30.02,ESE,122,4.2,15.4,90,0.00,,,0.00,VWS V14.01,2013-07-08 17:03:00,
2013-07-08 13:08:00,68.4,65.0,30.02,ESE,107,7.0,15.4,89,0.00,,,0.00,VWS V14.01,2013-07-08 17:08:00,
2013-07-08 13:13:00,68.6,65.2,30.02,SSE,165,9.8,15.4,89,0.00,,,0.00,VWS V14.01,2013-07-08 17:13:00,
2013-07-08 13:18:00,68.7,65.0,30.02,ESE,108,7.0,15.4,88,0.00,,,0.00,VWS V14.01,2013-07-08 17:18:00,
2013-07-08 13:23:00,69.0,65.3,30.02,SSE,154,5.6,15.4,88,0.00,,,0.00,VWS V14.01,2013-07-08 17:23:00,
2013-07-08 13:28:00,69.0,65.0,30.02,East,92,8.4,15.4,87,0.00,,,0.00,VWS V14.01,2013-07-08 17:28:00,
2013-07-08 13:33:00,69.1,65.4,30.02,ESE,113,5.6,15.4,88,0.00,,,0.00,VWS V14.01,2013-07-08 17:33:00,
2013-07-08 13:38:00,69.5,65.5,30.02,East,97,5.6,15.4,87,0.00,,,0.00,VWS V14.01,2013-07-08 17:38:00,
2013-07-08 13:43:00,69.7,65.7,30.02,ESE,103,4.2,15.4,87,0.00,,,0.00,VWS V14.01,2013-07-08 17:43:00,
2013-07-08 13:48:00,69.7,65.7,30.01,SE,133,7.0,15.4,87,0.00,,,0.00,VWS V14.01,2013-07-08 17:48:00,
2013-07-08 13:53:00,69.7,65.7,30.02,ESE,107,7.0,15.4,87,0.00,,,0.00,VWS V14.01,2013-07-08 17:53:00,
2013-07-08 13:58:00,69.7,65.7,30.02,SSE,152,5.6,15.4,87,0.00,,,0.00,VWS V14.01,2013-07-08 17:58:00,
2013-07-08 14:00:00,69.7,65.7,30.02,ESE,113,9.8,15.4,87,0.00,,,0.00,VWS V14.01,2013-07-08 18:00:00,
2013-07-08 14:03:00,69.6,65.6,30.02,ESE,123,4.2,14.0,87,0.00,,,0.00,VWS V14.01,2013-07-08 18:03:00,
2013-07-08 14:08:00,69.8,65.8,30.02,ESE,118,7.0,14.0,87,0.00,,,0.00,VWS V14.01,2013-07-08 18:08:00,
2013-07-08 14:13:00,69.9,65.9,30.02,SE,130,14.0,14.0,87,0.00,,,0.00,VWS V14.01,2013-07-08 18:13:00,
2013-07-08 14:18:00,69.6,65.6,30.02,SE,125,4.2,14.0,87,0.00,,,0.00,VWS V14.01,2013-07-08 18:18:00,
2013-07-08 14:23:00,69.7,65.7,30.02,ESE,106,8.4,14.0,87,0.00,,,0.00,VWS V14.01,2013-07-08 18:23:00,
2013-07-08 14:28:00,69.9,65.9,30.03,SE,141,8.4,14.0,87,0.00,,,0.00,VWS V14.01,2013-07-08 18:28:00,
2013-07-08 14:33:00,69.9,65.5,30.03,SSE,148,8.4,14.0,86,0.00,,,0.00,VWS V14.01,2013-07-08 18:33:00,
2013-07-08 14:38:00,69.8,65.8,30.03,South,176,7.0,14.0,87,0.00,,,0.00,VWS V14.01,2013-07-08 18:38:00,
2013-07-08 14:43:00,69.6,65.6,30.03,ESE,103,7.0,14.0,87,0.00,,,0.00,VWS V14.01,2013-07-08 18:43:00,
2013-07-08 14:48:00,69.4,65.4,30.03,ESE,115,4.2,14.0,87,0.00,,,0.00,VWS V14.01,2013-07-08 18:48:00,
2013-07-08 14:53:00,69.4,65.4,30.03,ESE,118,8.4,14.0,87,0.00,,,0.00,VWS V14.01,2013-07-08 18:53:00,
2013-07-08 14:58:00,69.4,65.4,30.03,SE,125,4.2,14.0,87,0.00,,,0.00,VWS V14.01,2013-07-08 18:58:00,
2013-07-08 15:00:00,69.7,65.7,30.02,ESE,113,9.8,15.4,87,0.00,,,0.00,VWS V14.01,2013-07-08 19:00:00,
2013-07-08 15:03:00,69.2,65.5,30.03,ESE,112,5.6,14.0,88,0.00,,,0.00,VWS V14.01,2013-07-08 19:03:00,
2013-07-08 15:08:00,69.2,65.5,30.03,ESE,113,7.0,14.0,88,0.00,,,0.00,VWS V14.01,2013-07-08 19:08:00,
2013-07-08 15:13:00,69.0,65.3,30.02,SE,145,5.6,14.0,88,0.00,,,0.00,VWS V14.01,2013-07-08 19:13:00,
2013-07-08 15:18:00,69.2,65.5,30.02,ESE,123,2.8,14.0,88,0.00,,,0.00,VWS V14.01,2013-07-08 19:18:00,
2013-07-08 15:23:00,69.4,65.7,30.02,ESE,122,5.6,14.0,88,0.00,,,0.00,VWS V14.01,2013-07-08 19:23:00,
2013-07-08 15:28:00,69.5,65.8,30.02,SSE,158,9.8,14.0,88,0.00,,,0.00,VWS V14.01,2013-07-08 19:28:00,
2013-07-08 15:33:00,69.7,65.7,30.02,ESE,110,8.4,14.0,87,0.00,,,0.00,VWS V14.01,2013-07-08 19:33:00,
2013-07-08 15:38:00,69.8,65.8,30.02,ESE,109,7.0,14.0,87,0.00,,,0.00,VWS V14.01,2013-07-08 19:38:00,
2013-07-08 15:43:00,69.8,65.8,30.02,ESE,103,5.6,14.0,87,0.00,,,0.00,VWS V14.01,2013-07-08 19:43:00,
2013-07-08 15:48:00,69.9,65.9,30.02,SSE,165,5.6,14.0,87,0.00,,,0.00,VWS V14.01,2013-07-08 19:48:00,
2013-07-08 15:53:00,69.9,65.9,30.02,ESE,114,4.2,14.0,87,0.00,,,0.00,VWS V14.01,2013-07-08 19:53:00,
2013-07-08 15:58:00,70.1,65.7,30.02,SE,130,7.0,14.0,86,0.00,,,0.00,VWS V14.01,2013-07-08 19:58:00,
2013-07-08 16:00:00,70.1,65.7,30.02,SE,128,7.0,14.0,86,0.00,,,0.00,VWS V14.01,2013-07-08 20:00:00,
2013-07-08 16:03:00,70.1,65.7,30.02,SE,131,9.8,9.8,86,0.00,,,0.00,VWS V14.01,2013-07-08 20:03:00,
2013-07-08 16:08:00,70.3,65.6,30.02,SE,134,11.2,14.0,85,0.00,,,0.00,VWS V14.01,2013-07-08 20:08:00,
2013-07-08 16:13:00,70.5,65.8,30.02,SE,132,7.0,14.0,85,0.00,,,0.00,VWS V14.01,2013-07-08 20:13:00,
2013-07-08 16:18:00,70.7,66.0,30.02,ESE,106,7.0,14.0,85,0.00,,,0.00,VWS V14.01,2013-07-08 20:18:00,
2013-07-08 16:23:00,70.4,65.7,30.02,SE,145,7.0,15.4,85,0.00,,,0.00,VWS V14.01,2013-07-08 20:23:00,
2013-07-08 16:28:00,70.4,66.0,30.02,SSE,148,7.0,15.4,86,0.00,,,0.00,VWS V14.01,2013-07-08 20:28:00,
2013-07-08 16:33:00,71.0,66.3,30.02,SSE,147,7.0,15.4,85,0.00,,,0.00,VWS V14.01,2013-07-08 20:33:00,
2013-07-08 16:38:00,71.2,66.5,30.02,SE,146,7.0,15.4,85,0.00,,,0.00,VWS V14.01,2013-07-08 20:38:00,
2013-07-08 16:43:00,71.9,66.5,30.02,SE,143,7.0,15.4,83,0.00,,,0.00,VWS V14.01,2013-07-08 20:43:00,
2013-07-08 16:48:00,72.1,66.3,30.01,South,176,9.8,15.4,82,0.00,,,0.00,VWS V14.01,2013-07-08 20:48:00,
2013-07-08 16:53:00,72.0,66.2,30.02,SW,221,7.0,15.4,82,0.00,,,0.00,VWS V14.01,2013-07-08 20:53:00,
2013-07-08 16:58:00,71.8,66.4,30.02,SSE,156,7.0,15.4,83,0.00,,,0.00,VWS V14.01,2013-07-08 20:58:00,
2013-07-08 17:00:00,70.1,65.7,30.02,SE,128,7.0,14.0,86,0.00,,,0.00,VWS V14.01,2013-07-08 21:00:00,
2013-07-08 17:03:00,71.9,66.5,30.02,SSW,203,7.0,15.4,83,0.00,,,0.00,VWS V14.01,2013-07-08 21:03:00,
2013-07-08 17:08:00,71.9,66.5,30.01,South,177,5.6,15.4,83,0.00,,,0.00,VWS V14.01,2013-07-08 21:08:00,
2013-07-08 17:13:00,72.0,66.6,30.01,ESE,113,7.0,15.4,83,0.00,,,0.00,VWS V14.01,2013-07-08 21:13:00,
2013-07-08 17:18:00,72.0,66.9,30.01,SSE,153,2.8,15.4,84,0.00,,,0.00,VWS V14.01,2013-07-08 21:18:00,
2013-07-08 17:23:00,71.9,66.5,30.02,SSE,162,4.2,15.4,83,0.00,,,0.00,VWS V14.01,2013-07-08 21:23:00,
2013-07-08 17:28:00,71.6,66.5,30.02,SSE,165,2.8,15.4,84,0.00,,,0.00,VWS V14.01,2013-07-08 21:28:00,
2013-07-08 17:33:00,71.1,66.0,30.02,SSE,148,4.2,15.4,84,0.00,,,0.00,VWS V14.01,2013-07-08 21:33:00,
2013-07-08 17:38:00,70.5,66.1,30.02,SSE,156,4.2,15.4,86,0.00,,,0.00,VWS V14.01,2013-07-08 21:38:00,
2013-07-08 17:43:00,70.3,65.9,30.02,ESE,119,5.6,15.4,86,0.00,,,0.00,VWS V14.01,2013-07-08 21:43:00,
2013-07-08 17:48:00,70.0,66.0,30.02,SSE,150,4.2,15.4,87,0.00,,,0.00,VWS V14.01,2013-07-08 21:48:00,
2013-07-08 17:53:00,69.9,65.9,30.02,SSE,160,7.0,15.4,87,0.00,,,0.00,VWS V14.01,2013-07-08 21:53:00,
2013-07-08 17:58:00,69.7,65.7,30.02,SE,145,4.2,15.4,87,0.00,,,0.00,VWS V14.01,2013-07-08 21:58:00,
2013-07-08 18:00:00,69.6,65.9,30.02,SE,140,4.2,15.4,88,0.00,,,0.00,VWS V14.01,2013-07-08 22:00:00,
2013-07-08 18:03:00,69.5,65.8,30.02,ESE,116,2.8,8.4,88,0.00,,,0.00,VWS V14.01,2013-07-08 22:03:00,
2013-07-08 18:08:00,69.5,65.8,30.02,SE,132,5.6,8.4,88,0.00,,,0.00,VWS V14.01,2013-07-08 22:08:00,
2013-07-08 18:13:00,69.3,65.6,30.02,East,95,7.0,8.4,88,0.00,,,0.00,VWS V14.01,2013-07-08 22:13:00,
2013-07-08 18:18:00,69.2,65.8,30.02,East,92,11.2,11.2,89,0.00,,,0.00,VWS V14.01,2013-07-08 22:18:00,
2013-07-08 18:23:00,69.2,65.8,30.01,East,99,7.0,12.6,89,0.00,,,0.00,VWS V14.01,2013-07-08 22:23:00,
2013-07-08 18:28:00,69.2,65.8,30.01,SSE,150,2.8,12.6,89,0.00,,,0.00,VWS V14.01,2013-07-08 22:28:00,
2013-07-08 18:33:00,69.3,65.6,30.01,SE,141,8.4,12.6,88,0.00,,,0.00,VWS V14.01,2013-07-08 22:33:00,
2013-07-08 18:38:00,69.4,65.7,30.01,SSE,160,8.4,12.6,88,0.00,,,0.00,VWS V14.01,2013-07-08 22:38:00,
2013-07-08 18:43:00,69.7,66.0,30.01,SSE,151,7.0,12.6,88,0.00,,,0.00,VWS V14.01,2013-07-08 22:43:00,
2013-07-08 18:48:00,69.9,65.9,30.01,SSE,162,4.2,12.6,87,0.00,,,0.00,VWS V14.01,2013-07-08 22:48:00,
2013-07-08 18:53:00,70.1,65.7,30.01,SE,132,7.0,12.6,86,0.00,,,0.00,VWS V14.01,2013-07-08 22:53:00,
2013-07-08 18:58:00,69.7,65.7,30.01,SE,145,7.0,12.6,87,0.00,,,0.00,VWS V14.01,2013-07-08 22:58:00,
2013-07-08 19:00:00,69.6,65.9,30.02,SE,140,4.2,15.4,88,0.00,,,0.00,VWS V14.01,2013-07-08 23:00:00,
2013-07-08 19:03:00,69.6,65.9,30.01,SSE,163,4.2,12.6,88,0.00,,,0.00,VWS V14.01,2013-07-08 23:03:00,
2013-07-08 19:08:00,69.4,65.7,30.01,South,181,5.6,12.6,88,0.00,,,0.00,VWS V14.01,2013-07-08 23:08:00,
2013-07-08 19:13:00,69.2,65.8,30.02,SE,145,2.8,12.6,89,0.00,,,0.00,VWS V14.01,2013-07-08 23:13:00,
2013-07-08 19:18:00,69.2,65.8,30.01,ESE,108,5.6,12.6,89,0.00,,,0.00,VWS V14.01,2013-07-08 23:18:00,
2013-07-08 19:23:00,69.1,65.7,30.01,SE,142,7.0,12.6,89,0.00,,,0.00,VWS V14.01,2013-07-08 23:23:00,
2013-07-08 19:28:00,69.1,65.7,30.02,SE,133,7.0,12.6,89,0.00,,,0.00,VWS V14.01,2013-07-08 23:28:00,
2013-07-08 19:33:00,69.3,65.9,30.02,ESE,123,5.6,12.6,89,0.00,,,0.00,VWS V14.01,2013-07-08 23:33:00,
2013-07-08 19:38:00,69.7,66.0,30.01,ESE,114,8.4,12.6,88,0.00,,,0.00,VWS V14.01,2013-07-08 23:38:00,
2013-07-08 19:43:00,69.6,65.6,30.02,SSE,154,8.4,12.6,87,0.00,,,0.00,VWS V14.01,2013-07-08 23:43:00,
2013-07-08 19:48:00,69.7,65.7,30.02,SSE,155,5.6,12.6,87,0.00,,,0.00,VWS V14.01,2013-07-08 23:48:00,
2013-07-08 19:53:00,69.8,65.8,30.02,SSE,165,2.8,12.6,87,0.00,,,0.00,VWS V14.01,2013-07-08 23:53:00,
2013-07-08 19:58:00,70.0,66.0,30.02,SE,128,4.2,12.6,87,0.00,,,0.00,VWS V14.01,2013-07-08 23:58:00,
2013-07-08 20:00:00,70.1,66.1,30.02,SE,127,4.2,12.6,87,0.00,,,0.00,VWS V14.01,2013-07-09 00:00:00,
2013-07-08 20:03:00,70.3,65.9,30.02,SE,146,5.6,11.2,86,0.00,,,0.00,VWS V14.01,2013-07-09 00:03:00,
2013-07-08 20:08:00,70.4,66.0,30.02,South,170,5.6,11.2,86,0.00,,,0.00,VWS V14.01,2013-07-09 00:08:00,
2013-07-08 20:13:00,70.2,65.8,30.02,South,186,8.4,11.2,86,0.00,,,0.00,VWS V14.01,2013-07-09 00:13:00,
2013-07-08 20:18:00,69.9,65.9,30.02,South,176,2.8,12.6,87,0.00,,,0.00,VWS V14.01,2013-07-09 00:18:00,
2013-07-08 20:23:00,69.4,65.4,30.03,SE,130,4.2,12.6,87,0.00,,,0.00,VWS V14.01,2013-07-09 00:23:00,
2013-07-08 20:28:00,69.2,65.5,30.02,South,176,4.2,12.6,88,0.00,,,0.00,VWS V14.01,2013-07-09 00:28:00,
2013-07-08 20:33:00,69.0,65.3,30.02,ESE,123,4.2,12.6,88,0.00,,,0.00,VWS V14.01,2013-07-09 00:33:00,
2013-07-08 20:38:00,68.9,65.2,30.03,SE,127,4.2,12.6,88,0.00,,,0.00,VWS V14.01,2013-07-09 00:38:00,
2013-07-08 20:43:00,68.9,65.2,30.03,SSE,148,2.8,12.6,88,0.00,,,0.00,VWS V14.01,2013-07-09 00:43:00,
2013-07-08 20:48:00,68.9,65.5,30.03,East,89,7.0,12.6,89,0.00,,,0.00,VWS V14.01,2013-07-09 00:48:00,
2013-07-08 20:53:00,68.5,65.1,30.03,ESE,119,2.8,12.6,89,0.00,,,0.00,VWS V14.01,2013-07-09 00:53:00,
2013-07-08 20:58:00,68.5,65.1,30.03,SSE,152,4.2,12.6,89,0.00,,,0.00,VWS V14.01,2013-07-09 00:58:00,
2013-07-08 21:00:00,70.1,66.1,30.02,SE,127,4.2,12.6,87,0.00,,,0.00,VWS V14.01,2013-07-09 01:00:00,
2013-07-08 21:03:00,68.5,65.1,30.03,South,184,2.8,12.6,89,0.00,,,0.00,VWS V14.01,2013-07-09 01:03:00,
2013-07-08 21:08:00,68.5,65.1,30.03,SSE,160,4.2,12.6,89,0.00,,,0.00,VWS V14.01,2013-07-09 01:08:00,
2013-07-08 21:13:00,68.4,65.0,30.03,SE,138,5.6,12.6,89,0.00,,,0.00,VWS V14.01,2013-07-09 01:13:00,
2013-07-08 21:18:00,68.4,65.4,30.03,SSE,166,5.6,12.6,90,0.00,,,0.00,VWS V14.01,2013-07-09 01:18:00,
2013-07-08 21:23:00,68.4,65.0,30.03,SSE,162,2.8,12.6,89,0.00,,,0.00,VWS V14.01,2013-07-09 01:23:00,
2013-07-08 21:28:00,68.3,65.3,30.03,SE,145,4.2,12.6,90,0.00,,,0.00,VWS V14.01,2013-07-09 01:28:00,
2013-07-08 21:33:00,68.2,65.2,30.03,SSE,150,2.8,12.6,90,0.00,,,0.00,VWS V14.01,2013-07-09 01:33:00,
2013-07-08 21:38:00,68.1,65.1,30.03,ESE,123,2.8,12.6,90,0.00,,,0.00,VWS V14.01,2013-07-09 01:38:00,
2013-07-08 21:43:00,67.8,64.8,30.04,SSE,157,2.8,12.6,90,0.00,,,0.00,VWS V14.01,2013-07-09 01:43:00,
2013-07-08 21:48:00,67.6,64.9,30.03,ESE,106,2.8,12.6,91,0.00,,,0.00,VWS V14.01,2013-07-09 01:48:00,
2013-07-08 21:53:00,67.5,64.8,30.04,SSE,161,2.8,12.6,91,0.00,,,0.00,VWS V14.01,2013-07-09 01:53:00,
2013-07-08 21:58:00,67.5,64.8,30.04,SE,134,2.8,12.6,91,0.00,,,0.00,VWS V14.01,2013-07-09 01:58:00,
2013-07-08 22:00:00,67.5,65.1,30.04,SE,142,2.8,12.6,92,0.00,,,0.00,VWS V14.01,2013-07-09 02:00:00,
2013-07-08 22:03:00,67.6,65.2,30.04,SSE,156,4.2,4.2,92,0.00,,,0.00,VWS V14.01,2013-07-09 02:03:00,
2013-07-08 22:08:00,67.6,65.2,30.04,SSE,151,2.8,5.6,92,0.00,,,0.00,VWS V14.01,2013-07-09 02:08:00,
2013-07-08 22:12:00,67.5,64.8,30.04,SSE,155,1.4,5.6,91,0.00,,,0.00,VWS V14.01,2013-07-09 02:12:00,
2013-07-08 22:17:00,67.5,65.1,30.04,South,176,1.4,5.6,92,0.00,,,0.00,VWS V14.01,2013-07-09 02:17:00,
2013-07-08 22:22:00,67.4,65.0,30.04,South,173,2.8,5.6,92,0.00,,,0.00,VWS V14.01,2013-07-09 02:22:00,
2013-07-08 22:27:00,67.2,64.8,30.04,SSE,155,1.4,5.6,92,0.00,,,0.00,VWS V14.01,2013-07-09 02:27:00,
2013-07-08 22:32:00,67.1,64.7,30.04,SE,145,1.4,5.6,92,0.00,,,0.00,VWS V14.01,2013-07-09 02:32:00,
2013-07-08 22:37:00,67.0,64.9,30.04,SSE,152,1.4,5.6,93,0.00,,,0.00,VWS V14.01,2013-07-09 02:37:00,
2013-07-08 22:42:00,66.8,64.7,30.04,SSE,150,0.0,5.6,93,0.00,,,0.00,VWS V14.01,2013-07-09 02:42:00,
2013-07-08 22:47:00,66.8,64.7,30.04,ESE,113,1.4,5.6,93,0.00,,,0.00,VWS V14.01,2013-07-09 02:47:00,
2013-07-08 22:52:00,66.7,64.6,30.04,SSE,148,1.4,5.6,93,0.00,,,0.00,VWS V14.01,2013-07-09 02:52:00,
2013-07-08 22:57:00,66.5,64.4,30.05,SSE,152,0.0,5.6,93,0.00,,,0.00,VWS V14.01,2013-07-09 02:57:00,
2013-07-08 23:00:00,67.5,65.1,30.04,SE,142,2.8,12.6,92,0.00,,,0.00,VWS V14.01,2013-07-09 03:00:00,
2013-07-08 23:03:00,66.3,64.2,30.05,SSE,152,0.0,5.6,93,0.00,,,0.00,VWS V14.01,2013-07-09 03:03:00,
2013-07-08 23:08:00,66.2,64.4,30.05,ESE,110,0.0,5.6,94,0.00,,,0.00,VWS V14.01,2013-07-09 03:08:00,
2013-07-08 23:13:00,66.0,64.2,30.05,ESE,110,0.0,5.6,94,0.00,,,0.00,VWS V14.01,2013-07-09 03:13:00,
2013-07-08 23:18:00,65.6,63.5,30.05,ESE,110,0.0,5.6,93,0.00,,,0.00,VWS V14.01,2013-07-09 03:18:00,
2013-07-08 23:23:00,65.5,64.0,30.05,ESE,110,0.0,5.6,95,0.00,,,0.00,VWS V14.01,2013-07-09 03:23:00,
2013-07-08 23:28:00,65.4,63.9,30.05,ESE,110,0.0,5.6,95,0.00,,,0.00,VWS V14.01,2013-07-09 03:28:00,
2013-07-08 23:33:00,65.0,63.2,30.05,SE,126,0.0,5.6,94,0.00,,,0.00,VWS V14.01,2013-07-09 03:33:00,
2013-07-08 23:38:00,64.8,63.3,30.05,SE,126,0.0,5.6,95,0.00,,,0.00,VWS V14.01,2013-07-09 03:38:00,
2013-07-08 23:43:00,64.5,63.0,30.05,SE,127,0.0,5.6,95,0.00,,,0.00,VWS V14.01,2013-07-09 03:43:00,
2013-07-08 23:48:00,64.4,62.9,30.05,SE,126,0.0,5.6,95,0.00,,,0.00,VWS V14.01,2013-07-09 03:48:00,
2013-07-08 23:53:00,64.5,63.3,30.05,SE,125,0.0,5.6,96,0.00,,,0.00,VWS V14.01,2013-07-09 03:53:00,
2013-07-08 23:58:00,64.3,62.8,30.05,SE,126,0.0,5.6,95,0.00,,,0.00,VWS V14.01,2013-07-09 03:58:00,